sensor_id;sensor_type;location;lat;lon;timestamp;temperature;humidity
19000;DHT22;9633;50.980;13.850;2023-11-19T00:00:47;4.20;99.90
19000;DHT22;9633;50.980;13.850;2023-11-19T00:02:25;4.20;99.90
19000;DHT22;9633;50.980;13.850;2023-11-19T00:03:57;4.10;99.90
19000;DHT22;9633;50.980;13.850;2023-11-19T00:05:31;4.10;99.90
19000;DHT22;9633;50.980;13.850;2023-11-19T00:07:03;4.10;99.90
19000;DHT22;9633;50.980;13.850;2023-11-19T00:08:38;4.10;99.90
19000;DHT22;9633;50.980;13.850;2023-11-19T00:10:12;4.10;99.90
19000;DHT22;9633;50.980;13.850;2023-11-19T00:11:45;4.00;99.90
19000;DHT22;9633;50.980;13.850;2023-11-19T00:13:23;4.00;99.90
19000;DHT22;9633;50.980;13.850;2023-11-19T00:14:55;4.00;99.90
19000;DHT22;9633;50.980;13.850;2023-11-19T00:16:28;4.00;99.90
19000;DHT22;9633;50.980;13.850;2023-11-19T00:18:01;4.00;99.90
19000;DHT22;9633;50.980;13.850;2023-11-19T00:19:36;4.00;99.90
19000;DHT22;9633;50.980;13.850;2023-11-19T00:21:08;3.90;99.90
19000;DHT22;9633;50.980;13.850;2023-11-19T00:22:42;4.00;99.90
19000;DHT22;9633;50.980;13.850;2023-11-19T00:24:18;3.90;99.90
19000;DHT22;9633;50.980;13.850;2023-11-19T00:25:52;3.90;99.90
19000;DHT22;9633;50.980;13.850;2023-11-19T00:27:24;3.90;99.90
19000;DHT22;9633;50.980;13.850;2023-11-19T00:28:59;3.90;99.90
19000;DHT22;9633;50.980;13.850;2023-11-19T00:30:31;3.90;99.90
19000;DHT22;9633;50.980;13.850;2023-11-19T00:32:05;4.00;99.90
19000;DHT22;9633;50.980;13.850;2023-11-19T00:33:37;4.00;99.90
19000;DHT22;9633;50.980;13.850;2023-11-19T00:35:21;4.00;99.90
19000;DHT22;9633;50.980;13.850;2023-11-19T00:36:54;4.00;99.90
19000;DHT22;9633;50.980;13.850;2023-11-19T00:38:27;4.00;99.90
19000;DHT22;9633;50.980;13.850;2023-11-19T00:40:00;4.10;99.90
19000;DHT22;9633;50.980;13.850;2023-11-19T00:41:33;4.00;99.90
19000;DHT22;9633;50.980;13.850;2023-11-19T00:43:06;4.00;99.90
19000;DHT22;9633;50.980;13.850;2023-11-19T00:44:40;4.10;99.90
19000;DHT22;9633;50.980;13.850;2023-11-19T00:46:22;4.10;99.90
19000;DHT22;9633;50.980;13.850;2023-11-19T00:47:54;4.10;99.90
19000;DHT22;9633;50.980;13.850;2023-11-19T00:49:28;4.10;99.90
19000;DHT22;9633;50.980;13.850;2023-11-19T00:51:00;4.10;99.90
19000;DHT22;9633;50.980;13.850;2023-11-19T00:52:33;4.00;99.90
19000;DHT22;9633;50.980;13.850;2023-11-19T00:54:05;4.00;99.90
19000;DHT22;9633;50.980;13.850;2023-11-19T00:55:38;4.00;99.90
19000;DHT22;9633;50.980;13.850;2023-11-19T00:57:14;4.00;99.90
19000;DHT22;9633;50.980;13.850;2023-11-19T00:58:47;4.00;99.90
19000;DHT22;9633;50.980;13.850;2023-11-19T01:00:21;4.00;99.90
19000;DHT22;9633;50.980;13.850;2023-11-19T01:01:56;4.00;99.90
19000;DHT22;9633;50.980;13.850;2023-11-19T01:03:28;4.10;99.90
19000;DHT22;9633;50.980;13.850;2023-11-19T01:05:01;4.10;99.90
19000;DHT22;9633;50.980;13.850;2023-11-19T01:06:34;4.10;99.90
19000;DHT22;9633;50.980;13.850;2023-11-19T01:08:07;4.10;99.90
19000;DHT22;9633;50.980;13.850;2023-11-19T01:09:42;4.10;99.90
19000;DHT22;9633;50.980;13.850;2023-11-19T01:11:20;4.10;99.90
19000;DHT22;9633;50.980;13.850;2023-11-19T01:12:54;4.10;99.90
19000;DHT22;9633;50.980;13.850;2023-11-19T01:14:27;4.20;99.90
19000;DHT22;9633;50.980;13.850;2023-11-19T01:16:01;4.20;99.90
19000;DHT22;9633;50.980;13.850;2023-11-19T01:17:34;4.20;99.90
19000;DHT22;9633;50.980;13.850;2023-11-19T01:19:08;4.20;99.90
19000;DHT22;9633;50.980;13.850;2023-11-19T01:20:48;4.20;99.90
19000;DHT22;9633;50.980;13.850;2023-11-19T01:22:21;4.20;99.90
19000;DHT22;9633;50.980;13.850;2023-11-19T01:23:55;4.20;99.90
19000;DHT22;9633;50.980;13.850;2023-11-19T01:25:27;4.20;99.90
19000;DHT22;9633;50.980;13.850;2023-11-19T01:27:01;4.30;99.90
19000;DHT22;9633;50.980;13.850;2023-11-19T01:28:33;4.30;99.90
19000;DHT22;9633;50.980;13.850;2023-11-19T01:30:07;4.30;99.90
19000;DHT22;9633;50.980;13.850;2023-11-19T01:31:43;4.30;99.90
19000;DHT22;9633;50.980;13.850;2023-11-19T01:33:17;4.30;99.90
19000;DHT22;9633;50.980;13.850;2023-11-19T01:34:50;4.40;99.90
19000;DHT22;9633;50.980;13.850;2023-11-19T01:36:23;4.40;99.90
19000;DHT22;9633;50.980;13.850;2023-11-19T01:37:55;4.40;99.90
19000;DHT22;9633;50.980;13.850;2023-11-19T01:39:28;4.50;99.90
19000;DHT22;9633;50.980;13.850;2023-11-19T01:41:01;4.50;99.90
19000;DHT22;9633;50.980;13.850;2023-11-19T01:42:36;4.50;99.90
19000;DHT22;9633;50.980;13.850;2023-11-19T01:44:09;4.60;99.90
19000;DHT22;9633;50.980;13.850;2023-11-19T01:45:44;4.60;99.90
19000;DHT22;9633;50.980;13.850;2023-11-19T01:47:18;4.70;99.90
19000;DHT22;9633;50.980;13.850;2023-11-19T01:48:52;4.70;99.90
19000;DHT22;9633;50.980;13.850;2023-11-19T01:50:26;4.70;99.90
19000;DHT22;9633;50.980;13.850;2023-11-19T01:52:00;4.80;99.90
19000;DHT22;9633;50.980;13.850;2023-11-19T01:53:34;4.80;99.90
19000;DHT22;9633;50.980;13.850;2023-11-19T01:55:08;4.80;99.90
19000;DHT22;9633;50.980;13.850;2023-11-19T01:56:43;4.80;99.90
19000;DHT22;9633;50.980;13.850;2023-11-19T01:58:16;4.70;99.90
19000;DHT22;9633;50.980;13.850;2023-11-19T01:59:50;4.80;99.90
19000;DHT22;9633;50.980;13.850;2023-11-19T02:01:24;4.90;99.90
19000;DHT22;9633;50.980;13.850;2023-11-19T02:02:57;4.90;99.90
19000;DHT22;9633;50.980;13.850;2023-11-19T02:04:31;5.00;99.90
19000;DHT22;9633;50.980;13.850;2023-11-19T02:06:05;5.00;99.90
19000;DHT22;9633;50.980;13.850;2023-11-19T02:07:39;5.10;99.90
19000;DHT22;9633;50.980;13.850;2023-11-19T02:09:11;5.10;99.90
19000;DHT22;9633;50.980;13.850;2023-11-19T02:10:45;5.10;99.90
19000;DHT22;9633;50.980;13.850;2023-11-19T02:12:17;5.20;99.90
19000;DHT22;9633;50.980;13.850;2023-11-19T02:13:52;5.20;99.90
19000;DHT22;9633;50.980;13.850;2023-11-19T02:15:24;5.20;99.90
19000;DHT22;9633;50.980;13.850;2023-11-19T02:16:58;5.10;99.90
19000;DHT22;9633;50.980;13.850;2023-11-19T02:18:31;5.10;99.90
19000;DHT22;9633;50.980;13.850;2023-11-19T02:20:06;5.10;99.90
19000;DHT22;9633;50.980;13.850;2023-11-19T02:21:38;5.10;99.90
19000;DHT22;9633;50.980;13.850;2023-11-19T02:23:13;5.00;99.90
19000;DHT22;9633;50.980;13.850;2023-11-19T02:24:47;5.00;99.90
19000;DHT22;9633;50.980;13.850;2023-11-19T02:26:28;5.00;99.90
19000;DHT22;9633;50.980;13.850;2023-11-19T02:28:03;5.00;99.90
19000;DHT22;9633;50.980;13.850;2023-11-19T02:29:37;5.00;99.90
19000;DHT22;9633;50.980;13.850;2023-11-19T02:31:10;5.00;99.90
19000;DHT22;9633;50.980;13.850;2023-11-19T02:32:44;5.00;99.90
19000;DHT22;9633;50.980;13.850;2023-11-19T02:34:16;4.90;99.90
19000;DHT22;9633;50.980;13.850;2023-11-19T02:35:49;5.00;99.90
19000;DHT22;9633;50.980;13.850;2023-11-19T02:37:21;4.90;99.90
19000;DHT22;9633;50.980;13.850;2023-11-19T02:38:55;4.90;99.90
19000;DHT22;9633;50.980;13.850;2023-11-19T02:40:28;5.00;99.90
19000;DHT22;9633;50.980;13.850;2023-11-19T02:42:00;5.00;99.90
19000;DHT22;9633;50.980;13.850;2023-11-19T02:43:36;5.00;99.90
19000;DHT22;9633;50.980;13.850;2023-11-19T02:45:11;5.00;99.90
19000;DHT22;9633;50.980;13.850;2023-11-19T02:46:46;5.00;99.90
19000;DHT22;9633;50.980;13.850;2023-11-19T02:48:20;5.10;99.90
19000;DHT22;9633;50.980;13.850;2023-11-19T02:49:53;5.10;99.90
19000;DHT22;9633;50.980;13.850;2023-11-19T02:51:26;5.10;99.90
19000;DHT22;9633;50.980;13.850;2023-11-19T02:52:59;5.10;99.90
19000;DHT22;9633;50.980;13.850;2023-11-19T02:54:33;5.10;99.90
19000;DHT22;9633;50.980;13.850;2023-11-19T02:56:07;5.10;99.90
19000;DHT22;9633;50.980;13.850;2023-11-19T02:57:47;5.10;99.90
19000;DHT22;9633;50.980;13.850;2023-11-19T02:59:23;5.20;99.90
19000;DHT22;9633;50.980;13.850;2023-11-19T03:00:59;5.20;99.90
19000;DHT22;9633;50.980;13.850;2023-11-19T03:02:41;5.30;99.90
19000;DHT22;9633;50.980;13.850;2023-11-19T03:04:17;5.30;99.90
19000;DHT22;9633;50.980;13.850;2023-11-19T03:05:52;5.30;99.90
19000;DHT22;9633;50.980;13.850;2023-11-19T03:07:24;5.20;99.90
19000;DHT22;9633;50.980;13.850;2023-11-19T03:08:58;5.20;99.90
19000;DHT22;9633;50.980;13.850;2023-11-19T03:10:30;5.20;99.90
19000;DHT22;9633;50.980;13.850;2023-11-19T03:12:04;5.20;99.90
19000;DHT22;9633;50.980;13.850;2023-11-19T03:13:38;5.20;99.90
19000;DHT22;9633;50.980;13.850;2023-11-19T03:15:13;5.20;99.90
19000;DHT22;9633;50.980;13.850;2023-11-19T03:16:45;5.20;99.90
19000;DHT22;9633;50.980;13.850;2023-11-19T03:18:19;5.20;99.90
19000;DHT22;9633;50.980;13.850;2023-11-19T03:19:51;5.30;99.90
19000;DHT22;9633;50.980;13.850;2023-11-19T03:21:27;5.30;99.90
19000;DHT22;9633;50.980;13.850;2023-11-19T03:23:01;5.30;99.90
19000;DHT22;9633;50.980;13.850;2023-11-19T03:24:33;5.40;99.90
19000;DHT22;9633;50.980;13.850;2023-11-19T03:26:07;5.40;99.90
19000;DHT22;9633;50.980;13.850;2023-11-19T03:27:43;5.40;99.90
19000;DHT22;9633;50.980;13.850;2023-11-19T03:29:16;5.40;99.90
19000;DHT22;9633;50.980;13.850;2023-11-19T03:30:50;5.40;99.90
19000;DHT22;9633;50.980;13.850;2023-11-19T03:32:22;5.40;99.90
19000;DHT22;9633;50.980;13.850;2023-11-19T03:33:56;5.40;99.90
19000;DHT22;9633;50.980;13.850;2023-11-19T03:35:30;5.40;99.90
19000;DHT22;9633;50.980;13.850;2023-11-19T03:37:05;5.40;99.90
19000;DHT22;9633;50.980;13.850;2023-11-19T03:38:37;5.40;99.90
19000;DHT22;9633;50.980;13.850;2023-11-19T03:40:14;5.40;99.90
19000;DHT22;9633;50.980;13.850;2023-11-19T03:41:46;5.40;99.90
19000;DHT22;9633;50.980;13.850;2023-11-19T03:43:20;5.40;99.90
19000;DHT22;9633;50.980;13.850;2023-11-19T03:44:52;5.40;99.90
19000;DHT22;9633;50.980;13.850;2023-11-19T03:46:27;5.40;99.90
19000;DHT22;9633;50.980;13.850;2023-11-19T03:48:05;5.40;99.90
19000;DHT22;9633;50.980;13.850;2023-11-19T03:49:38;5.40;99.90
19000;DHT22;9633;50.980;13.850;2023-11-19T03:51:11;5.40;99.90
19000;DHT22;9633;50.980;13.850;2023-11-19T03:52:47;5.40;99.90
19000;DHT22;9633;50.980;13.850;2023-11-19T03:54:20;5.40;99.90
19000;DHT22;9633;50.980;13.850;2023-11-19T03:55:55;5.40;99.90
19000;DHT22;9633;50.980;13.850;2023-11-19T03:57:28;5.30;99.90
19000;DHT22;9633;50.980;13.850;2023-11-19T03:59:00;5.30;99.90
19000;DHT22;9633;50.980;13.850;2023-11-19T04:00:34;5.30;99.90
19000;DHT22;9633;50.980;13.850;2023-11-19T04:02:08;5.30;99.90
19000;DHT22;9633;50.980;13.850;2023-11-19T04:03:41;5.30;99.90
19000;DHT22;9633;50.980;13.850;2023-11-19T04:05:17;5.20;99.90
19000;DHT22;9633;50.980;13.850;2023-11-19T04:06:50;5.20;99.90
19000;DHT22;9633;50.980;13.850;2023-11-19T04:08:24;5.10;99.90
19000;DHT22;9633;50.980;13.850;2023-11-19T04:09:56;5.10;99.90
19000;DHT22;9633;50.980;13.850;2023-11-19T04:11:29;5.10;99.90
19000;DHT22;9633;50.980;13.850;2023-11-19T04:13:01;5.10;99.90
19000;DHT22;9633;50.980;13.850;2023-11-19T04:14:36;5.10;99.90
19000;DHT22;9633;50.980;13.850;2023-11-19T04:16:08;5.00;99.90
19000;DHT22;9633;50.980;13.850;2023-11-19T04:17:43;5.10;99.90
19000;DHT22;9633;50.980;13.850;2023-11-19T04:19:17;5.10;99.90
19000;DHT22;9633;50.980;13.850;2023-11-19T04:20:49;5.10;99.90
19000;DHT22;9633;50.980;13.850;2023-11-19T04:22:23;5.10;99.90
19000;DHT22;9633;50.980;13.850;2023-11-19T04:23:56;5.10;99.90
19000;DHT22;9633;50.980;13.850;2023-11-19T04:25:29;5.10;99.90
19000;DHT22;9633;50.980;13.850;2023-11-19T04:27:01;5.10;99.90
19000;DHT22;9633;50.980;13.850;2023-11-19T04:28:35;5.10;99.90
19000;DHT22;9633;50.980;13.850;2023-11-19T04:30:07;5.10;99.90
19000;DHT22;9633;50.980;13.850;2023-11-19T04:31:43;5.00;99.90
19000;DHT22;9633;50.980;13.850;2023-11-19T04:33:17;5.00;99.90
19000;DHT22;9633;50.980;13.850;2023-11-19T04:34:50;5.00;99.90
19000;DHT22;9633;50.980;13.850;2023-11-19T04:36:23;5.00;99.90
19000;DHT22;9633;50.980;13.850;2023-11-19T04:37:57;5.10;99.90
19000;DHT22;9633;50.980;13.850;2023-11-19T04:39:30;5.00;99.90
19000;DHT22;9633;50.980;13.850;2023-11-19T04:41:03;5.00;99.90
19000;DHT22;9633;50.980;13.850;2023-11-19T04:42:37;5.00;99.90
19000;DHT22;9633;50.980;13.850;2023-11-19T04:44:11;5.00;99.90
19000;DHT22;9633;50.980;13.850;2023-11-19T04:45:45;5.00;99.90
19000;DHT22;9633;50.980;13.850;2023-11-19T04:47:17;4.90;99.90
19000;DHT22;9633;50.980;13.850;2023-11-19T04:48:52;4.90;99.90
19000;DHT22;9633;50.980;13.850;2023-11-19T04:50:24;4.80;99.90
19000;DHT22;9633;50.980;13.850;2023-11-19T04:51:59;4.80;99.90
19000;DHT22;9633;50.980;13.850;2023-11-19T04:53:31;4.70;99.90
19000;DHT22;9633;50.980;13.850;2023-11-19T04:55:05;4.70;99.90
19000;DHT22;9633;50.980;13.850;2023-11-19T04:56:37;4.60;99.90
19000;DHT22;9633;50.980;13.850;2023-11-19T04:58:11;4.60;99.90
19000;DHT22;9633;50.980;13.850;2023-11-19T04:59:43;4.60;99.90
19000;DHT22;9633;50.980;13.850;2023-11-19T05:01:17;4.60;99.90
19000;DHT22;9633;50.980;13.850;2023-11-19T05:02:49;4.60;99.90
19000;DHT22;9633;50.980;13.850;2023-11-19T05:04:24;4.60;99.90
19000;DHT22;9633;50.980;13.850;2023-11-19T05:05:56;4.60;99.90
19000;DHT22;9633;50.980;13.850;2023-11-19T05:07:29;4.60;99.90
19000;DHT22;9633;50.980;13.850;2023-11-19T05:09:02;4.50;99.90
19000;DHT22;9633;50.980;13.850;2023-11-19T05:10:37;4.50;99.90
19000;DHT22;9633;50.980;13.850;2023-11-19T05:12:10;4.50;99.90
19000;DHT22;9633;50.980;13.850;2023-11-19T05:13:44;4.50;99.90
19000;DHT22;9633;50.980;13.850;2023-11-19T05:15:17;4.50;99.90
19000;DHT22;9633;50.980;13.850;2023-11-19T05:16:50;4.50;99.90
19000;DHT22;9633;50.980;13.850;2023-11-19T05:18:23;4.50;99.90
19000;DHT22;9633;50.980;13.850;2023-11-19T05:19:57;4.50;99.90
19000;DHT22;9633;50.980;13.850;2023-11-19T05:21:29;4.50;99.90
19000;DHT22;9633;50.980;13.850;2023-11-19T05:23:03;4.50;99.90
19000;DHT22;9633;50.980;13.850;2023-11-19T05:24:35;4.50;99.90
19000;DHT22;9633;50.980;13.850;2023-11-19T05:26:08;4.50;99.90
19000;DHT22;9633;50.980;13.850;2023-11-19T05:27:41;4.50;99.90
19000;DHT22;9633;50.980;13.850;2023-11-19T05:29:14;4.50;99.90
19000;DHT22;9633;50.980;13.850;2023-11-19T05:30:46;4.50;99.90
19000;DHT22;9633;50.980;13.850;2023-11-19T05:32:19;4.40;99.90
19000;DHT22;9633;50.980;13.850;2023-11-19T05:33:51;4.40;99.90
19000;DHT22;9633;50.980;13.850;2023-11-19T05:35:26;4.40;99.90
19000;DHT22;9633;50.980;13.850;2023-11-19T05:36:58;4.40;99.90
19000;DHT22;9633;50.980;13.850;2023-11-19T05:38:31;4.40;99.90
19000;DHT22;9633;50.980;13.850;2023-11-19T05:40:05;4.40;99.90
19000;DHT22;9633;50.980;13.850;2023-11-19T05:41:46;4.40;99.90
19000;DHT22;9633;50.980;13.850;2023-11-19T05:43:19;4.30;99.90
19000;DHT22;9633;50.980;13.850;2023-11-19T05:44:51;4.30;99.90
19000;DHT22;9633;50.980;13.850;2023-11-19T05:46:25;4.30;99.90
19000;DHT22;9633;50.980;13.850;2023-11-19T05:47:58;4.30;99.90
19000;DHT22;9633;50.980;13.850;2023-11-19T05:49:31;4.30;99.90
19000;DHT22;9633;50.980;13.850;2023-11-19T05:51:05;4.30;99.90
19000;DHT22;9633;50.980;13.850;2023-11-19T05:52:38;4.30;99.90
19000;DHT22;9633;50.980;13.850;2023-11-19T05:54:11;4.30;99.90
19000;DHT22;9633;50.980;13.850;2023-11-19T05:55:45;4.30;99.90
19000;DHT22;9633;50.980;13.850;2023-11-19T05:57:20;4.30;99.90
19000;DHT22;9633;50.980;13.850;2023-11-19T05:58:57;4.30;99.90
19000;DHT22;9633;50.980;13.850;2023-11-19T06:00:29;4.30;99.90
19000;DHT22;9633;50.980;13.850;2023-11-19T06:02:03;4.30;99.90
19000;DHT22;9633;50.980;13.850;2023-11-19T06:03:35;4.40;99.90
19000;DHT22;9633;50.980;13.850;2023-11-19T06:05:08;4.40;99.90
19000;DHT22;9633;50.980;13.850;2023-11-19T06:06:42;4.40;99.90
19000;DHT22;9633;50.980;13.850;2023-11-19T06:08:16;4.40;99.90
19000;DHT22;9633;50.980;13.850;2023-11-19T06:09:48;4.40;99.90
19000;DHT22;9633;50.980;13.850;2023-11-19T06:11:21;4.40;99.90
19000;DHT22;9633;50.980;13.850;2023-11-19T06:12:53;4.40;99.90
19000;DHT22;9633;50.980;13.850;2023-11-19T06:14:28;4.40;99.90
19000;DHT22;9633;50.980;13.850;2023-11-19T06:16:00;4.40;99.90
19000;DHT22;9633;50.980;13.850;2023-11-19T06:17:34;4.40;99.90
19000;DHT22;9633;50.980;13.850;2023-11-19T06:19:08;4.50;99.90
19000;DHT22;9633;50.980;13.850;2023-11-19T06:20:40;4.50;99.90
19000;DHT22;9633;50.980;13.850;2023-11-19T06:22:16;4.50;99.90
19000;DHT22;9633;50.980;13.850;2023-11-19T06:23:48;4.50;99.90
19000;DHT22;9633;50.980;13.850;2023-11-19T06:25:23;4.50;99.90
19000;DHT22;9633;50.980;13.850;2023-11-19T06:26:56;4.50;99.90
19000;DHT22;9633;50.980;13.850;2023-11-19T06:28:30;4.50;99.90
19000;DHT22;9633;50.980;13.850;2023-11-19T06:30:02;4.50;99.90
19000;DHT22;9633;50.980;13.850;2023-11-19T06:31:35;4.50;99.90
19000;DHT22;9633;50.980;13.850;2023-11-19T06:33:08;4.50;99.90
19000;DHT22;9633;50.980;13.850;2023-11-19T06:34:42;4.50;99.90
19000;DHT22;9633;50.980;13.850;2023-11-19T06:36:14;4.50;99.90
19000;DHT22;9633;50.980;13.850;2023-11-19T06:37:50;4.50;99.90
19000;DHT22;9633;50.980;13.850;2023-11-19T06:39:22;4.60;99.90
19000;DHT22;9633;50.980;13.850;2023-11-19T06:40:56;4.60;99.90
19000;DHT22;9633;50.980;13.850;2023-11-19T06:42:28;4.60;99.90
19000;DHT22;9633;50.980;13.850;2023-11-19T06:44:02;4.60;99.90
19000;DHT22;9633;50.980;13.850;2023-11-19T06:45:34;4.60;99.90
19000;DHT22;9633;50.980;13.850;2023-11-19T06:47:08;4.60;99.90
19000;DHT22;9633;50.980;13.850;2023-11-19T06:48:41;4.70;99.90
19000;DHT22;9633;50.980;13.850;2023-11-19T06:50:16;4.70;99.90
19000;DHT22;9633;50.980;13.850;2023-11-19T06:51:48;4.70;99.90
19000;DHT22;9633;50.980;13.850;2023-11-19T06:53:22;4.70;99.90
19000;DHT22;9633;50.980;13.850;2023-11-19T06:54:55;4.70;99.90
19000;DHT22;9633;50.980;13.850;2023-11-19T06:56:39;4.70;99.90
19000;DHT22;9633;50.980;13.850;2023-11-19T06:58:13;4.70;99.90
19000;DHT22;9633;50.980;13.850;2023-11-19T06:59:45;4.70;99.90
19000;DHT22;9633;50.980;13.850;2023-11-19T07:01:18;4.80;99.90
19000;DHT22;9633;50.980;13.850;2023-11-19T07:02:51;4.80;99.90
19000;DHT22;9633;50.980;13.850;2023-11-19T07:04:25;4.80;99.90
19000;DHT22;9633;50.980;13.850;2023-11-19T07:05:57;4.90;99.90
19000;DHT22;9633;50.980;13.850;2023-11-19T07:07:31;4.90;99.90
19000;DHT22;9633;50.980;13.850;2023-11-19T07:09:05;4.90;99.90
19000;DHT22;9633;50.980;13.850;2023-11-19T07:10:42;4.90;99.90
19000;DHT22;9633;50.980;13.850;2023-11-19T07:12:14;5.00;99.90
19000;DHT22;9633;50.980;13.850;2023-11-19T07:13:47;5.00;99.90
19000;DHT22;9633;50.980;13.850;2023-11-19T07:15:20;5.00;99.90
19000;DHT22;9633;50.980;13.850;2023-11-19T07:16:53;5.00;99.90
19000;DHT22;9633;50.980;13.850;2023-11-19T07:18:25;5.00;99.90
19000;DHT22;9633;50.980;13.850;2023-11-19T07:19:58;5.00;99.90
19000;DHT22;9633;50.980;13.850;2023-11-19T07:21:32;5.00;99.90
19000;DHT22;9633;50.980;13.850;2023-11-19T07:23:05;5.00;99.90
19000;DHT22;9633;50.980;13.850;2023-11-19T07:24:40;5.00;99.90
19000;DHT22;9633;50.980;13.850;2023-11-19T07:26:13;5.00;99.90
19000;DHT22;9633;50.980;13.850;2023-11-19T07:27:46;5.00;99.90
19000;DHT22;9633;50.980;13.850;2023-11-19T07:29:19;5.00;99.90
19000;DHT22;9633;50.980;13.850;2023-11-19T07:30:56;5.00;99.90
19000;DHT22;9633;50.980;13.850;2023-11-19T07:32:29;5.00;99.90
19000;DHT22;9633;50.980;13.850;2023-11-19T07:34:02;5.00;99.90
19000;DHT22;9633;50.980;13.850;2023-11-19T07:35:35;5.00;99.90
19000;DHT22;9633;50.980;13.850;2023-11-19T07:37:07;5.00;99.90
19000;DHT22;9633;50.980;13.850;2023-11-19T07:38:41;5.00;99.90
19000;DHT22;9633;50.980;13.850;2023-11-19T07:40:14;5.10;99.90
19000;DHT22;9633;50.980;13.850;2023-11-19T07:41:47;5.10;99.90
19000;DHT22;9633;50.980;13.850;2023-11-19T07:43:21;5.10;99.90
19000;DHT22;9633;50.980;13.850;2023-11-19T07:44:53;5.10;99.90
19000;DHT22;9633;50.980;13.850;2023-11-19T07:46:28;5.10;99.90
19000;DHT22;9633;50.980;13.850;2023-11-19T07:48:00;5.20;99.90
19000;DHT22;9633;50.980;13.850;2023-11-19T07:49:34;5.10;99.90
19000;DHT22;9633;50.980;13.850;2023-11-19T07:51:06;5.20;99.90
19000;DHT22;9633;50.980;13.850;2023-11-19T07:52:39;5.20;99.90
19000;DHT22;9633;50.980;13.850;2023-11-19T07:54:11;5.20;99.90
19000;DHT22;9633;50.980;13.850;2023-11-19T07:55:47;5.20;99.90
19000;DHT22;9633;50.980;13.850;2023-11-19T07:57:19;5.30;99.90
19000;DHT22;9633;50.980;13.850;2023-11-19T07:58:52;5.30;99.90
19000;DHT22;9633;50.980;13.850;2023-11-19T08:00:25;5.40;99.90
19000;DHT22;9633;50.980;13.850;2023-11-19T08:01:58;5.40;99.90
19000;DHT22;9633;50.980;13.850;2023-11-19T08:03:32;5.50;99.90
19000;DHT22;9633;50.980;13.850;2023-11-19T08:05:04;5.50;99.90
19000;DHT22;9633;50.980;13.850;2023-11-19T08:06:38;5.60;99.90
19000;DHT22;9633;50.980;13.850;2023-11-19T08:08:10;5.50;99.90
19000;DHT22;9633;50.980;13.850;2023-11-19T08:09:44;5.50;99.90
19000;DHT22;9633;50.980;13.850;2023-11-19T08:11:18;5.50;99.90
19000;DHT22;9633;50.980;13.850;2023-11-19T08:12:52;5.40;99.90
19000;DHT22;9633;50.980;13.850;2023-11-19T08:14:24;5.50;99.90
19000;DHT22;9633;50.980;13.850;2023-11-19T08:15:57;5.50;99.90
19000;DHT22;9633;50.980;13.850;2023-11-19T08:17:30;5.50;99.90
19000;DHT22;9633;50.980;13.850;2023-11-19T08:19:03;5.50;99.90
19000;DHT22;9633;50.980;13.850;2023-11-19T08:20:37;5.60;99.90
19000;DHT22;9633;50.980;13.850;2023-11-19T08:22:09;5.60;99.90
19000;DHT22;9633;50.980;13.850;2023-11-19T08:23:42;5.60;99.90
19000;DHT22;9633;50.980;13.850;2023-11-19T08:25:15;5.70;99.90
19000;DHT22;9633;50.980;13.850;2023-11-19T08:26:49;5.70;99.90
19000;DHT22;9633;50.980;13.850;2023-11-19T08:28:34;5.70;99.90
19000;DHT22;9633;50.980;13.850;2023-11-19T08:30:08;5.70;99.90
19000;DHT22;9633;50.980;13.850;2023-11-19T08:31:40;5.80;99.90
19000;DHT22;9633;50.980;13.850;2023-11-19T08:33:13;5.80;99.90
19000;DHT22;9633;50.980;13.850;2023-11-19T08:34:47;5.80;99.90
19000;DHT22;9633;50.980;13.850;2023-11-19T08:36:20;5.90;99.90
19000;DHT22;9633;50.980;13.850;2023-11-19T08:37:53;5.90;99.90
19000;DHT22;9633;50.980;13.850;2023-11-19T08:39:26;6.00;99.90
19000;DHT22;9633;50.980;13.850;2023-11-19T08:40:59;6.00;99.90
19000;DHT22;9633;50.980;13.850;2023-11-19T08:42:33;5.90;99.90
19000;DHT22;9633;50.980;13.850;2023-11-19T08:44:07;5.90;99.90
19000;DHT22;9633;50.980;13.850;2023-11-19T08:45:39;5.90;99.90
19000;DHT22;9633;50.980;13.850;2023-11-19T08:47:12;6.00;99.90
19000;DHT22;9633;50.980;13.850;2023-11-19T08:48:45;6.20;99.90
19000;DHT22;9633;50.980;13.850;2023-11-19T08:50:19;6.50;99.90
19000;DHT22;9633;50.980;13.850;2023-11-19T08:51:51;6.70;99.90
19000;DHT22;9633;50.980;13.850;2023-11-19T08:53:24;6.90;99.90
19000;DHT22;9633;50.980;13.850;2023-11-19T08:54:56;7.00;99.90
19000;DHT22;9633;50.980;13.850;2023-11-19T08:56:30;7.10;99.90
19000;DHT22;9633;50.980;13.850;2023-11-19T08:58:06;7.20;99.90
19000;DHT22;9633;50.980;13.850;2023-11-19T08:59:39;7.40;99.90
19000;DHT22;9633;50.980;13.850;2023-11-19T09:01:12;7.40;99.90
19000;DHT22;9633;50.980;13.850;2023-11-19T09:02:45;7.40;99.90
19000;DHT22;9633;50.980;13.850;2023-11-19T09:04:19;7.60;99.90
19000;DHT22;9633;50.980;13.850;2023-11-19T09:05:54;7.60;99.90
19000;DHT22;9633;50.980;13.850;2023-11-19T09:07:27;7.40;99.90
19000;DHT22;9633;50.980;13.850;2023-11-19T09:09:00;7.40;99.90
19000;DHT22;9633;50.980;13.850;2023-11-19T09:10:34;7.30;99.90
19000;DHT22;9633;50.980;13.850;2023-11-19T09:12:07;7.20;99.90
19000;DHT22;9633;50.980;13.850;2023-11-19T09:13:41;7.10;99.90
19000;DHT22;9633;50.980;13.850;2023-11-19T09:15:14;7.00;99.90
19000;DHT22;9633;50.980;13.850;2023-11-19T09:16:49;7.00;99.90
19000;DHT22;9633;50.980;13.850;2023-11-19T09:18:21;6.90;99.90
19000;DHT22;9633;50.980;13.850;2023-11-19T09:19:55;7.00;99.90
19000;DHT22;9633;50.980;13.850;2023-11-19T09:21:27;6.90;99.90
19000;DHT22;9633;50.980;13.850;2023-11-19T09:23:01;6.90;99.90
19000;DHT22;9633;50.980;13.850;2023-11-19T09:24:33;6.90;99.90
19000;DHT22;9633;50.980;13.850;2023-11-19T09:26:08;6.90;99.90
19000;DHT22;9633;50.980;13.850;2023-11-19T09:27:40;6.90;99.90
19000;DHT22;9633;50.980;13.850;2023-11-19T09:29:15;7.00;99.90
19000;DHT22;9633;50.980;13.850;2023-11-19T09:30:48;6.90;99.90
19000;DHT22;9633;50.980;13.850;2023-11-19T09:32:21;6.90;99.90
19000;DHT22;9633;50.980;13.850;2023-11-19T09:33:54;7.00;99.90
19000;DHT22;9633;50.980;13.850;2023-11-19T09:35:27;6.90;99.90
19000;DHT22;9633;50.980;13.850;2023-11-19T09:36:59;6.90;99.90
19000;DHT22;9633;50.980;13.850;2023-11-19T09:38:33;6.80;99.90
19000;DHT22;9633;50.980;13.850;2023-11-19T09:40:06;6.90;99.90
19000;DHT22;9633;50.980;13.850;2023-11-19T09:41:41;6.80;99.90
19000;DHT22;9633;50.980;13.850;2023-11-19T09:43:14;6.80;99.90
19000;DHT22;9633;50.980;13.850;2023-11-19T09:44:49;6.90;99.90
19000;DHT22;9633;50.980;13.850;2023-11-19T09:46:23;6.90;99.90
19000;DHT22;9633;50.980;13.850;2023-11-19T09:47:57;6.90;99.90
19000;DHT22;9633;50.980;13.850;2023-11-19T09:49:35;7.00;99.90
19000;DHT22;9633;50.980;13.850;2023-11-19T09:51:09;7.00;99.90
19000;DHT22;9633;50.980;13.850;2023-11-19T09:52:42;7.10;99.90
19000;DHT22;9633;50.980;13.850;2023-11-19T09:54:16;7.20;99.90
19000;DHT22;9633;50.980;13.850;2023-11-19T09:55:49;7.20;99.90
19000;DHT22;9633;50.980;13.850;2023-11-19T09:57:22;7.30;99.90
19000;DHT22;9633;50.980;13.850;2023-11-19T09:58:55;7.30;99.90
19000;DHT22;9633;50.980;13.850;2023-11-19T10:00:30;7.30;99.90